Fuyun, China
Current Conditions -  °F | °C
As of 1:30 AM on Sunday 26 Oct 2014 (Local Time) from ZWWW Reporting Station
Clear Clear  
Wind Chill: 52°   Ceiling: Unl
Heat Index: 52°   Visibility: 4mi
Dew Point: 45°   Wind: 2mph
Humidity: 76%   Direction: NA
Pressure: 30.09"   Gusts: NA
Location:  46.98°N, 89.52°E
Report Text: ZWWW 251730Z VRB01MPS 6000 NSC 11/07 Q1019 NOSIG
Loading
Personal Weather Stations






























Interactive Weather Map
Tropical Storm Tracking
New forecast layout! Learn more

10-Day Weather Forecast

Advertisements
Track Severe Weather on mobile